Accueil
METAR-TAF:

METAR-TAF

Aéroports :

Wittering, Angleterre

latitude: 52-37N, longitude: 000-28W, altitude: 84 m

Observation

Le bulletin a été fait il y a 54 minutes, à 19:20 UTC
Vent 14 kt de nord/nord-ouest
Température 13°C
Humidité 77%
Pression 1013 hPa
Visibilité 10 km ou plus

METAR: EGXT 301920Z AUTO 34014KT 9999 FEW018/// OVC046/// 13/09 Q1013

Heure: 21:14 (20:14 UTC)

Prévision

Le bulletin a été fait il y a 6 heures et 40 minutes, à 13:34 UTC
Prévision valable du 30 à 15 UTC au 30 à 18 UTC
Vent 14 kt de nord/nord-ouest
Visibilité 10 km ou plus
Nuages épars à une hauteur de 3000 ft
Temporairement
du 30 à 15 UTC au 30 à 18 UTC
Vent 15 kt de nord/nord-ouest avec des rafales jusqu'à 25 kt
Probabilité 30% :
Temporairement
du 30 à 15 UTC au 30 à 18 UTC
Nuages épars à une hauteur de 2200 ft
faibles averses de pluie,

TAF: EGXT 301334Z 3015/3018 33014KT 9999 SCT030 TEMPO 3015/3018 34015G25KT PROB30 TEMPO 3015/3018 -SHRA SCT022

Observations et prévisions météorologiques de plus de 4000 aéroports (messages METAR et TAF).

Les stations disponibles sont représentées par des disques jaunes et rouges sur la carte.

Passer la souris dessus pour voir le nom de la station.

Cliquer dessus pour voir les observations et prévisions météorologiques.

Pour changer de carte: cliquez sur les boutons verts avec une croix noire pour zoomer, sur le bouton vert avec un tiret pour effectuer un zoom arrière, ou sur les flèches vertes pour les cartes adjacentes.


METAR-TAF: